Springfield, Colorado
Current Conditions -  °F | °C
As of 8:53 PM on Friday 24 Oct 2014 (Local Time) from KLAA Reporting Station
Clear Clear  
Wind Chill: 60°   Ceiling: Unl
Heat Index: 60°   Visibility: 10mi
Dew Point: 38°   Wind: 0mph
Humidity: 44%   Direction: NA
Pressure: 30.09"   Gusts: NA
Location:  37.41°N, 102.61°W
Report Text: KLAA 250253Z AUTO 00000KT 10SM CLR 16/03 A3009 RMK AO2 SLP162 T01560033 51011
Loading
Personal Weather Stations






























Interactive Weather Map
Tropical Storm Tracking
New forecast layout! Learn more

10-Day Weather Forecast

Advertisements
Track Severe Weather on mobile